sensor_id;sensor_type;location;lat;lon;timestamp;P1;durP1;ratioP1;P2;durP2;ratioP2
13943;SDS011;7044;53.286;8.534;2022-12-18T00:00:10;27.13;;;11.90;;
13943;SDS011;7044;53.286;8.534;2022-12-18T00:02:38;30.13;;;12.40;;
13943;SDS011;7044;53.286;8.534;2022-12-18T00:05:05;37.73;;;12.60;;
13943;SDS011;7044;53.286;8.534;2022-12-18T00:07:32;33.23;;;13.37;;
13943;SDS011;7044;53.286;8.534;2022-12-18T00:09:59;32.50;;;13.37;;
13943;SDS011;7044;53.286;8.534;2022-12-18T00:12:26;32.60;;;13.70;;
13943;SDS011;7044;53.286;8.534;2022-12-18T00:14:53;30.37;;;12.43;;
13943;SDS011;7044;53.286;8.534;2022-12-18T00:17:21;29.03;;;13.00;;
13943;SDS011;7044;53.286;8.534;2022-12-18T00:19:47;31.73;;;12.67;;
13943;SDS011;7044;53.286;8.534;2022-12-18T00:22:14;27.87;;;12.43;;
13943;SDS011;7044;53.286;8.534;2022-12-18T00:24:41;33.83;;;12.63;;
13943;SDS011;7044;53.286;8.534;2022-12-18T00:27:08;26.00;;;12.63;;
13943;SDS011;7044;53.286;8.534;2022-12-18T00:29:35;28.50;;;11.73;;
13943;SDS011;7044;53.286;8.534;2022-12-18T00:32:01;29.73;;;12.50;;
13943;SDS011;7044;53.286;8.534;2022-12-18T00:34:29;25.57;;;11.43;;
13943;SDS011;7044;53.286;8.534;2022-12-18T00:36:56;29.53;;;12.10;;
13943;SDS011;7044;53.286;8.534;2022-12-18T00:39:23;28.20;;;11.90;;
13943;SDS011;7044;53.286;8.534;2022-12-18T00:41:50;30.83;;;12.70;;
13943;SDS011;7044;53.286;8.534;2022-12-18T00:44:34;23.97;;;10.37;;
13943;SDS011;7044;53.286;8.534;2022-12-18T00:47:01;21.83;;;10.60;;
13943;SDS011;7044;53.286;8.534;2022-12-18T00:49:27;25.53;;;11.17;;
13943;SDS011;7044;53.286;8.534;2022-12-18T00:51:55;30.23;;;11.17;;
13943;SDS011;7044;53.286;8.534;2022-12-18T00:54:22;24.87;;;11.57;;
13943;SDS011;7044;53.286;8.534;2022-12-18T00:56:49;24.40;;;10.03;;
13943;SDS011;7044;53.286;8.534;2022-12-18T00:59:16;21.23;;;9.60;;
13943;SDS011;7044;53.286;8.534;2022-12-18T01:01:44;25.13;;;10.83;;
13943;SDS011;7044;53.286;8.534;2022-12-18T01:04:11;29.83;;;12.70;;
13943;SDS011;7044;53.286;8.534;2022-12-18T01:06:40;25.83;;;11.87;;
13943;SDS011;7044;53.286;8.534;2022-12-18T01:09:07;27.67;;;11.13;;
13943;SDS011;7044;53.286;8.534;2022-12-18T01:11:33;25.03;;;11.50;;
13943;SDS011;7044;53.286;8.534;2022-12-18T01:14:00;23.87;;;11.00;;
13943;SDS011;7044;53.286;8.534;2022-12-18T01:16:27;21.13;;;10.23;;
13943;SDS011;7044;53.286;8.534;2022-12-18T01:18:54;23.00;;;10.77;;
13943;SDS011;7044;53.286;8.534;2022-12-18T01:21:21;24.13;;;11.50;;
13943;SDS011;7044;53.286;8.534;2022-12-18T01:23:52;22.40;;;11.43;;
13943;SDS011;7044;53.286;8.534;2022-12-18T01:26:20;23.33;;;11.23;;
13943;SDS011;7044;53.286;8.534;2022-12-18T01:28:47;22.20;;;11.17;;
13943;SDS011;7044;53.286;8.534;2022-12-18T01:31:16;23.27;;;10.43;;
13943;SDS011;7044;53.286;8.534;2022-12-18T01:33:44;25.27;;;10.67;;
13943;SDS011;7044;53.286;8.534;2022-12-18T01:36:16;24.67;;;10.57;;
13943;SDS011;7044;53.286;8.534;2022-12-18T01:38:44;22.90;;;10.23;;
13943;SDS011;7044;53.286;8.534;2022-12-18T01:41:13;24.27;;;11.20;;
13943;SDS011;7044;53.286;8.534;2022-12-18T01:43:42;20.27;;;9.63;;
13943;SDS011;7044;53.286;8.534;2022-12-18T01:46:18;20.20;;;9.87;;
13943;SDS011;7044;53.286;8.534;2022-12-18T01:48:49;22.07;;;9.63;;
13943;SDS011;7044;53.286;8.534;2022-12-18T01:51:20;19.00;;;9.57;;
13943;SDS011;7044;53.286;8.534;2022-12-18T01:53:47;24.33;;;10.97;;
13943;SDS011;7044;53.286;8.534;2022-12-18T01:56:16;24.67;;;10.73;;
13943;SDS011;7044;53.286;8.534;2022-12-18T01:58:46;19.17;;;9.37;;
13943;SDS011;7044;53.286;8.534;2022-12-18T02:01:20;26.77;;;11.87;;
13943;SDS011;7044;53.286;8.534;2022-12-18T02:03:47;26.50;;;12.67;;
13943;SDS011;7044;53.286;8.534;2022-12-18T02:06:15;34.57;;;11.67;;
13943;SDS011;7044;53.286;8.534;2022-12-18T02:08:48;28.13;;;11.97;;
13943;SDS011;7044;53.286;8.534;2022-12-18T02:11:29;20.33;;;9.70;;
13943;SDS011;7044;53.286;8.534;2022-12-18T02:14:04;23.83;;;8.70;;
13943;SDS011;7044;53.286;8.534;2022-12-18T02:16:42;25.03;;;11.70;;
13943;SDS011;7044;53.286;8.534;2022-12-18T02:19:15;17.23;;;9.10;;
13943;SDS011;7044;53.286;8.534;2022-12-18T02:22:02;21.23;;;9.57;;
13943;SDS011;7044;53.286;8.534;2022-12-18T02:24:38;25.70;;;10.27;;
13943;SDS011;7044;53.286;8.534;2022-12-18T02:27:15;21.03;;;9.43;;
13943;SDS011;7044;53.286;8.534;2022-12-18T02:29:43;18.10;;;10.20;;
13943;SDS011;7044;53.286;8.534;2022-12-18T02:32:15;21.83;;;10.20;;
13943;SDS011;7044;53.286;8.534;2022-12-18T02:34:46;20.20;;;9.93;;
13943;SDS011;7044;53.286;8.534;2022-12-18T02:37:14;20.70;;;9.17;;
13943;SDS011;7044;53.286;8.534;2022-12-18T02:39:44;20.23;;;9.87;;
13943;SDS011;7044;53.286;8.534;2022-12-18T02:42:15;19.30;;;9.30;;
13943;SDS011;7044;53.286;8.534;2022-12-18T02:44:43;20.83;;;9.20;;
13943;SDS011;7044;53.286;8.534;2022-12-18T02:47:11;17.00;;;8.00;;
13943;SDS011;7044;53.286;8.534;2022-12-18T02:49:42;18.20;;;9.17;;
13943;SDS011;7044;53.286;8.534;2022-12-18T02:52:18;18.70;;;8.40;;
13943;SDS011;7044;53.286;8.534;2022-12-18T02:54:57;15.93;;;9.27;;
13943;SDS011;7044;53.286;8.534;2022-12-18T02:57:34;18.70;;;8.43;;
13943;SDS011;7044;53.286;8.534;2022-12-18T03:00:08;16.53;;;8.90;;
13943;SDS011;7044;53.286;8.534;2022-12-18T03:02:39;18.97;;;9.33;;
13943;SDS011;7044;53.286;8.534;2022-12-18T03:05:12;15.70;;;8.73;;
13943;SDS011;7044;53.286;8.534;2022-12-18T03:07:43;17.47;;;9.73;;
13943;SDS011;7044;53.286;8.534;2022-12-18T03:10:15;24.27;;;10.23;;
13943;SDS011;7044;53.286;8.534;2022-12-18T03:12:48;17.73;;;8.87;;
13943;SDS011;7044;53.286;8.534;2022-12-18T03:15:19;14.97;;;9.23;;
13943;SDS011;7044;53.286;8.534;2022-12-18T03:17:50;22.00;;;9.87;;
13943;SDS011;7044;53.286;8.534;2022-12-18T03:20:23;16.53;;;8.83;;
13943;SDS011;7044;53.286;8.534;2022-12-18T03:22:56;17.73;;;9.00;;
13943;SDS011;7044;53.286;8.534;2022-12-18T03:25:26;15.37;;;8.17;;
13943;SDS011;7044;53.286;8.534;2022-12-18T03:27:57;16.10;;;8.93;;
13943;SDS011;7044;53.286;8.534;2022-12-18T03:30:26;16.23;;;8.93;;
13943;SDS011;7044;53.286;8.534;2022-12-18T03:32:56;16.47;;;8.80;;
13943;SDS011;7044;53.286;8.534;2022-12-18T03:35:29;19.27;;;10.07;;
13943;SDS011;7044;53.286;8.534;2022-12-18T03:37:58;17.17;;;9.60;;
13943;SDS011;7044;53.286;8.534;2022-12-18T03:40:34;21.57;;;9.30;;
13943;SDS011;7044;53.286;8.534;2022-12-18T03:43:10;14.97;;;9.13;;
13943;SDS011;7044;53.286;8.534;2022-12-18T03:45:41;20.10;;;7.73;;
13943;SDS011;7044;53.286;8.534;2022-12-18T03:48:14;13.37;;;7.43;;
13943;SDS011;7044;53.286;8.534;2022-12-18T03:50:46;15.57;;;7.90;;
13943;SDS011;7044;53.286;8.534;2022-12-18T03:53:20;18.30;;;8.43;;
13943;SDS011;7044;53.286;8.534;2022-12-18T03:55:53;17.63;;;9.03;;
13943;SDS011;7044;53.286;8.534;2022-12-18T03:58:24;19.93;;;8.73;;
13943;SDS011;7044;53.286;8.534;2022-12-18T04:00:52;23.57;;;9.63;;
13943;SDS011;7044;53.286;8.534;2022-12-18T04:03:22;17.93;;;7.87;;
13943;SDS011;7044;53.286;8.534;2022-12-18T04:05:50;15.30;;;7.30;;
13943;SDS011;7044;53.286;8.534;2022-12-18T04:08:18;11.57;;;7.47;;
13943;SDS011;7044;53.286;8.534;2022-12-18T04:10:46;17.10;;;7.60;;
13943;SDS011;7044;53.286;8.534;2022-12-18T04:13:21;19.87;;;8.27;;
13943;SDS011;7044;53.286;8.534;2022-12-18T04:15:49;20.27;;;8.17;;
13943;SDS011;7044;53.286;8.534;2022-12-18T04:18:16;12.17;;;7.63;;
13943;SDS011;7044;53.286;8.534;2022-12-18T04:20:43;13.80;;;6.83;;
13943;SDS011;7044;53.286;8.534;2022-12-18T04:23:09;15.73;;;8.20;;
13943;SDS011;7044;53.286;8.534;2022-12-18T04:25:36;13.80;;;7.90;;
13943;SDS011;7044;53.286;8.534;2022-12-18T04:28:03;13.93;;;7.50;;
13943;SDS011;7044;53.286;8.534;2022-12-18T04:30:30;14.50;;;7.17;;
13943;SDS011;7044;53.286;8.534;2022-12-18T04:32:58;15.57;;;7.10;;
13943;SDS011;7044;53.286;8.534;2022-12-18T04:35:25;12.87;;;7.27;;
13943;SDS011;7044;53.286;8.534;2022-12-18T04:37:52;13.63;;;7.27;;
13943;SDS011;7044;53.286;8.534;2022-12-18T04:40:19;17.40;;;7.73;;
13943;SDS011;7044;53.286;8.534;2022-12-18T04:42:46;13.03;;;7.20;;
13943;SDS011;7044;53.286;8.534;2022-12-18T04:45:13;12.93;;;7.47;;
13943;SDS011;7044;53.286;8.534;2022-12-18T04:47:39;12.40;;;6.93;;
13943;SDS011;7044;53.286;8.534;2022-12-18T04:50:08;10.40;;;6.70;;
13943;SDS011;7044;53.286;8.534;2022-12-18T04:52:35;15.37;;;7.40;;
13943;SDS011;7044;53.286;8.534;2022-12-18T04:55:02;14.80;;;7.10;;
13943;SDS011;7044;53.286;8.534;2022-12-18T04:57:30;14.40;;;6.97;;
13943;SDS011;7044;53.286;8.534;2022-12-18T04:59:56;10.80;;;6.57;;
13943;SDS011;7044;53.286;8.534;2022-12-18T05:02:23;12.57;;;6.77;;
13943;SDS011;7044;53.286;8.534;2022-12-18T05:04:50;12.93;;;7.10;;
13943;SDS011;7044;53.286;8.534;2022-12-18T05:07:18;12.53;;;7.10;;
13943;SDS011;7044;53.286;8.534;2022-12-18T05:09:45;13.23;;;7.27;;
13943;SDS011;7044;53.286;8.534;2022-12-18T05:12:11;12.43;;;7.40;;
13943;SDS011;7044;53.286;8.534;2022-12-18T05:14:38;11.27;;;6.90;;
13943;SDS011;7044;53.286;8.534;2022-12-18T05:17:05;10.60;;;5.97;;
13943;SDS011;7044;53.286;8.534;2022-12-18T05:19:32;11.83;;;6.57;;
13943;SDS011;7044;53.286;8.534;2022-12-18T05:21:58;11.37;;;6.67;;
13943;SDS011;7044;53.286;8.534;2022-12-18T05:24:27;12.07;;;6.60;;
13943;SDS011;7044;53.286;8.534;2022-12-18T05:26:54;10.27;;;5.77;;
13943;SDS011;7044;53.286;8.534;2022-12-18T05:29:21;10.50;;;6.20;;
13943;SDS011;7044;53.286;8.534;2022-12-18T05:31:48;11.57;;;6.30;;
13943;SDS011;7044;53.286;8.534;2022-12-18T05:34:15;11.83;;;6.50;;
13943;SDS011;7044;53.286;8.534;2022-12-18T05:36:41;13.43;;;6.03;;
13943;SDS011;7044;53.286;8.534;2022-12-18T05:39:08;12.83;;;6.70;;
13943;SDS011;7044;53.286;8.534;2022-12-18T05:41:37;9.90;;;5.77;;
13943;SDS011;7044;53.286;8.534;2022-12-18T05:44:04;10.60;;;6.33;;
13943;SDS011;7044;53.286;8.534;2022-12-18T05:46:30;15.00;;;6.17;;
13943;SDS011;7044;53.286;8.534;2022-12-18T05:48:58;12.10;;;6.77;;
13943;SDS011;7044;53.286;8.534;2022-12-18T05:51:26;10.27;;;5.57;;
13943;SDS011;7044;53.286;8.534;2022-12-18T05:53:53;9.70;;;6.67;;
13943;SDS011;7044;53.286;8.534;2022-12-18T05:56:20;13.20;;;5.10;;
13943;SDS011;7044;53.286;8.534;2022-12-18T05:58:51;9.30;;;5.83;;
13943;SDS011;7044;53.286;8.534;2022-12-18T06:01:20;10.93;;;5.97;;
13943;SDS011;7044;53.286;8.534;2022-12-18T06:03:48;14.23;;;6.13;;
13943;SDS011;7044;53.286;8.534;2022-12-18T06:06:16;12.53;;;6.00;;
13943;SDS011;7044;53.286;8.534;2022-12-18T06:08:43;6.33;;;4.73;;
13943;SDS011;7044;53.286;8.534;2022-12-18T06:11:11;12.13;;;6.23;;
13943;SDS011;7044;53.286;8.534;2022-12-18T06:13:38;10.60;;;5.60;;
13943;SDS011;7044;53.286;8.534;2022-12-18T06:16:06;10.37;;;5.63;;
13943;SDS011;7044;53.286;8.534;2022-12-18T06:18:33;12.80;;;6.47;;
13943;SDS011;7044;53.286;8.534;2022-12-18T06:21:00;9.00;;;5.83;;
13943;SDS011;7044;53.286;8.534;2022-12-18T06:23:27;9.60;;;5.87;;
13943;SDS011;7044;53.286;8.534;2022-12-18T06:25:54;8.97;;;5.10;;
13943;SDS011;7044;53.286;8.534;2022-12-18T06:28:21;11.47;;;5.90;;
13943;SDS011;7044;53.286;8.534;2022-12-18T06:30:48;8.13;;;4.27;;
13943;SDS011;7044;53.286;8.534;2022-12-18T06:33:16;12.30;;;4.70;;
13943;SDS011;7044;53.286;8.534;2022-12-18T06:35:43;11.53;;;5.43;;
13943;SDS011;7044;53.286;8.534;2022-12-18T06:38:10;6.90;;;4.00;;
13943;SDS011;7044;53.286;8.534;2022-12-18T06:40:37;9.90;;;5.80;;
13943;SDS011;7044;53.286;8.534;2022-12-18T06:43:04;7.03;;;4.53;;
13943;SDS011;7044;53.286;8.534;2022-12-18T06:45:32;10.40;;;5.23;;
13943;SDS011;7044;53.286;8.534;2022-12-18T06:47:58;6.37;;;4.17;;
13943;SDS011;7044;53.286;8.534;2022-12-18T06:50:27;9.60;;;5.10;;
13943;SDS011;7044;53.286;8.534;2022-12-18T06:52:53;8.03;;;4.60;;
13943;SDS011;7044;53.286;8.534;2022-12-18T06:55:20;11.60;;;5.53;;
13943;SDS011;7044;53.286;8.534;2022-12-18T06:57:47;6.80;;;4.40;;
13943;SDS011;7044;53.286;8.534;2022-12-18T07:00:14;6.93;;;4.90;;
13943;SDS011;7044;53.286;8.534;2022-12-18T07:02:41;8.83;;;4.70;;
13943;SDS011;7044;53.286;8.534;2022-12-18T07:05:08;7.33;;;4.53;;
13943;SDS011;7044;53.286;8.534;2022-12-18T07:07:36;9.97;;;4.97;;
13943;SDS011;7044;53.286;8.534;2022-12-18T07:10:03;8.77;;;4.30;;
13943;SDS011;7044;53.286;8.534;2022-12-18T07:12:30;7.80;;;3.93;;
13943;SDS011;7044;53.286;8.534;2022-12-18T07:14:57;7.57;;;4.47;;
13943;SDS011;7044;53.286;8.534;2022-12-18T07:17:24;8.83;;;4.50;;
13943;SDS011;7044;53.286;8.534;2022-12-18T07:19:51;7.27;;;4.73;;
13943;SDS011;7044;53.286;8.534;2022-12-18T07:22:17;7.40;;;4.57;;
13943;SDS011;7044;53.286;8.534;2022-12-18T07:24:46;9.97;;;4.80;;
13943;SDS011;7044;53.286;8.534;2022-12-18T07:27:12;9.03;;;5.20;;
13943;SDS011;7044;53.286;8.534;2022-12-18T07:29:39;6.70;;;4.53;;
13943;SDS011;7044;53.286;8.534;2022-12-18T07:32:06;7.87;;;3.83;;
13943;SDS011;7044;53.286;8.534;2022-12-18T07:34:33;6.43;;;3.87;;
13943;SDS011;7044;53.286;8.534;2022-12-18T07:37:00;6.93;;;4.13;;
13943;SDS011;7044;53.286;8.534;2022-12-18T07:39:26;7.93;;;4.63;;
13943;SDS011;7044;53.286;8.534;2022-12-18T07:41:55;10.80;;;4.53;;
13943;SDS011;7044;53.286;8.534;2022-12-18T07:44:39;7.67;;;4.90;;
13943;SDS011;7044;53.286;8.534;2022-12-18T07:47:05;7.97;;;4.83;;
13943;SDS011;7044;53.286;8.534;2022-12-18T07:49:32;6.67;;;4.43;;
13943;SDS011;7044;53.286;8.534;2022-12-18T07:51:59;7.80;;;3.93;;
13943;SDS011;7044;53.286;8.534;2022-12-18T07:54:26;8.50;;;4.37;;
13943;SDS011;7044;53.286;8.534;2022-12-18T07:56:55;10.50;;;4.07;;
13943;SDS011;7044;53.286;8.534;2022-12-18T07:59:21;8.47;;;5.00;;
13943;SDS011;7044;53.286;8.534;2022-12-18T08:01:48;7.83;;;4.80;;
13943;SDS011;7044;53.286;8.534;2022-12-18T08:04:15;12.60;;;5.50;;
13943;SDS011;7044;53.286;8.534;2022-12-18T08:06:42;5.73;;;4.03;;
13943;SDS011;7044;53.286;8.534;2022-12-18T08:09:09;9.13;;;4.53;;
13943;SDS011;7044;53.286;8.534;2022-12-18T08:11:36;8.73;;;5.27;;
13943;SDS011;7044;53.286;8.534;2022-12-18T08:14:04;8.23;;;4.83;;
13943;SDS011;7044;53.286;8.534;2022-12-18T08:16:31;12.13;;;6.37;;
13943;SDS011;7044;53.286;8.534;2022-12-18T08:18:58;11.10;;;5.17;;
13943;SDS011;7044;53.286;8.534;2022-12-18T08:21:25;7.33;;;4.83;;
13943;SDS011;7044;53.286;8.534;2022-12-18T08:23:54;10.93;;;4.80;;
13943;SDS011;7044;53.286;8.534;2022-12-18T08:26:23;7.97;;;4.90;;
13943;SDS011;7044;53.286;8.534;2022-12-18T08:28:51;9.40;;;4.63;;
13943;SDS011;7044;53.286;8.534;2022-12-18T08:31:21;8.60;;;4.87;;
13943;SDS011;7044;53.286;8.534;2022-12-18T08:33:49;8.93;;;5.07;;
13943;SDS011;7044;53.286;8.534;2022-12-18T08:36:16;12.60;;;5.73;;
13943;SDS011;7044;53.286;8.534;2022-12-18T08:38:43;10.57;;;7.33;;
13943;SDS011;7044;53.286;8.534;2022-12-18T08:41:10;7.90;;;4.67;;
13943;SDS011;7044;53.286;8.534;2022-12-18T08:43:38;11.53;;;5.57;;
13943;SDS011;7044;53.286;8.534;2022-12-18T08:46:25;15.03;;;6.00;;
13943;SDS011;7044;53.286;8.534;2022-12-18T08:48:53;9.83;;;5.50;;
13943;SDS011;7044;53.286;8.534;2022-12-18T08:51:21;13.77;;;6.70;;
13943;SDS011;7044;53.286;8.534;2022-12-18T08:53:47;18.33;;;7.50;;
13943;SDS011;7044;53.286;8.534;2022-12-18T08:56:14;12.40;;;6.73;;
13943;SDS011;7044;53.286;8.534;2022-12-18T08:58:41;7.30;;;4.90;;
13943;SDS011;7044;53.286;8.534;2022-12-18T09:01:09;7.00;;;4.67;;
13943;SDS011;7044;53.286;8.534;2022-12-18T09:03:38;9.33;;;5.40;;
13943;SDS011;7044;53.286;8.534;2022-12-18T09:06:05;9.93;;;5.97;;
13943;SDS011;7044;53.286;8.534;2022-12-18T09:08:34;10.90;;;6.43;;
13943;SDS011;7044;53.286;8.534;2022-12-18T09:11:01;8.83;;;5.47;;
13943;SDS011;7044;53.286;8.534;2022-12-18T09:13:28;12.30;;;5.47;;
13943;SDS011;7044;53.286;8.534;2022-12-18T09:15:55;9.83;;;5.30;;
13943;SDS011;7044;53.286;8.534;2022-12-18T09:18:22;10.37;;;5.37;;
13943;SDS011;7044;53.286;8.534;2022-12-18T09:20:51;12.90;;;6.03;;
13943;SDS011;7044;53.286;8.534;2022-12-18T09:23:18;8.53;;;5.57;;
13943;SDS011;7044;53.286;8.534;2022-12-18T09:25:44;9.37;;;5.50;;
13943;SDS011;7044;53.286;8.534;2022-12-18T09:28:12;7.57;;;4.90;;
13943;SDS011;7044;53.286;8.534;2022-12-18T09:30:41;11.90;;;6.10;;
13943;SDS011;7044;53.286;8.534;2022-12-18T09:33:09;12.83;;;5.83;;
13943;SDS011;7044;53.286;8.534;2022-12-18T09:35:36;10.97;;;5.40;;
13943;SDS011;7044;53.286;8.534;2022-12-18T09:38:05;11.17;;;5.30;;
13943;SDS011;7044;53.286;8.534;2022-12-18T09:40:32;9.03;;;5.93;;
13943;SDS011;7044;53.286;8.534;2022-12-18T09:43:03;11.60;;;5.10;;
13943;SDS011;7044;53.286;8.534;2022-12-18T09:45:30;9.70;;;5.47;;
13943;SDS011;7044;53.286;8.534;2022-12-18T09:48:05;10.13;;;5.77;;
13943;SDS011;7044;53.286;8.534;2022-12-18T09:50:37;10.77;;;5.37;;
13943;SDS011;7044;53.286;8.534;2022-12-18T09:53:09;8.73;;;5.57;;
13943;SDS011;7044;53.286;8.534;2022-12-18T09:55:42;13.77;;;5.53;;
13943;SDS011;7044;53.286;8.534;2022-12-18T09:58:14;9.57;;;5.90;;
13943;SDS011;7044;53.286;8.534;2022-12-18T10:00:46;9.13;;;5.70;;
13943;SDS011;7044;53.286;8.534;2022-12-18T10:03:13;7.80;;;4.63;;
13943;SDS011;7044;53.286;8.534;2022-12-18T10:05:43;10.87;;;5.70;;
13943;SDS011;7044;53.286;8.534;2022-12-18T10:08:22;11.43;;;5.53;;
13943;SDS011;7044;53.286;8.534;2022-12-18T10:11:00;13.87;;;6.10;;
13943;SDS011;7044;53.286;8.534;2022-12-18T10:13:46;7.73;;;5.00;;
13943;SDS011;7044;53.286;8.534;2022-12-18T10:16:19;8.47;;;5.13;;
13943;SDS011;7044;53.286;8.534;2022-12-18T10:19:00;15.80;;;6.33;;
13943;SDS011;7044;53.286;8.534;2022-12-18T10:21:38;10.13;;;5.53;;
13943;SDS011;7044;53.286;8.534;2022-12-18T10:24:14;12.00;;;7.23;;
13943;SDS011;7044;53.286;8.534;2022-12-18T10:26:46;19.40;;;6.23;;
13943;SDS011;7044;53.286;8.534;2022-12-18T10:29:15;14.47;;;7.30;;
13943;SDS011;7044;53.286;8.534;2022-12-18T10:31:42;15.90;;;7.93;;
13943;SDS011;7044;53.286;8.534;2022-12-18T10:34:09;8.97;;;6.10;;
13943;SDS011;7044;53.286;8.534;2022-12-18T10:36:37;11.87;;;6.10;;
13943;SDS011;7044;53.286;8.534;2022-12-18T10:39:18;10.60;;;5.87;;
13943;SDS011;7044;53.286;8.534;2022-12-18T10:41:47;9.33;;;5.43;;
13943;SDS011;7044;53.286;8.534;2022-12-18T10:44:16;11.57;;;6.40;;
13943;SDS011;7044;53.286;8.534;2022-12-18T10:46:45;14.73;;;6.40;;
13943;SDS011;7044;53.286;8.534;2022-12-18T10:49:23;10.23;;;6.37;;
13943;SDS011;7044;53.286;8.534;2022-12-18T10:52:03;9.83;;;6.63;;
13943;SDS011;7044;53.286;8.534;2022-12-18T10:54:34;10.37;;;5.90;;
13943;SDS011;7044;53.286;8.534;2022-12-18T10:59:56;11.80;;;6.43;;
13943;SDS011;7044;53.286;8.534;2022-12-18T11:02:28;11.50;;;6.77;;
13943;SDS011;7044;53.286;8.534;2022-12-18T11:05:00;10.83;;;6.50;;
13943;SDS011;7044;53.286;8.534;2022-12-18T11:07:35;10.70;;;6.23;;
13943;SDS011;7044;53.286;8.534;2022-12-18T11:10:17;11.47;;;6.40;;
13943;SDS011;7044;53.286;8.534;2022-12-18T11:12:44;12.67;;;6.07;;
13943;SDS011;7044;53.286;8.534;2022-12-18T11:15:15;17.23;;;6.20;;
13943;SDS011;7044;53.286;8.534;2022-12-18T11:17:44;10.53;;;5.70;;
13943;SDS011;7044;53.286;8.534;2022-12-18T11:20:19;14.50;;;7.00;;
13943;SDS011;7044;53.286;8.534;2022-12-18T11:22:54;10.27;;;6.20;;
13943;SDS011;7044;53.286;8.534;2022-12-18T11:25:24;13.63;;;6.07;;
13943;SDS011;7044;53.286;8.534;2022-12-18T11:27:51;11.40;;;6.53;;
13943;SDS011;7044;53.286;8.534;2022-12-18T11:30:21;12.33;;;6.57;;
13943;SDS011;7044;53.286;8.534;2022-12-18T11:32:50;15.43;;;7.40;;
13943;SDS011;7044;53.286;8.534;2022-12-18T11:35:21;12.27;;;5.97;;
13943;SDS011;7044;53.286;8.534;2022-12-18T11:37:56;12.70;;;6.70;;
13943;SDS011;7044;53.286;8.534;2022-12-18T11:40:30;12.07;;;6.57;;
13943;SDS011;7044;53.286;8.534;2022-12-18T11:43:02;14.27;;;9.00;;
13943;SDS011;7044;53.286;8.534;2022-12-18T11:45:38;11.87;;;7.13;;
13943;SDS011;7044;53.286;8.534;2022-12-18T11:48:11;10.43;;;6.00;;
13943;SDS011;7044;53.286;8.534;2022-12-18T11:50:44;10.73;;;6.73;;
13943;SDS011;7044;53.286;8.534;2022-12-18T11:53:15;13.80;;;6.40;;
13943;SDS011;7044;53.286;8.534;2022-12-18T11:55:48;7.97;;;5.60;;
13943;SDS011;7044;53.286;8.534;2022-12-18T11:58:26;8.73;;;5.60;;
13943;SDS011;7044;53.286;8.534;2022-12-18T12:01:07;11.67;;;6.23;;
13943;SDS011;7044;53.286;8.534;2022-12-18T12:03:51;10.83;;;5.80;;
13943;SDS011;7044;53.286;8.534;2022-12-18T12:06:36;9.77;;;5.13;;
13943;SDS011;7044;53.286;8.534;2022-12-18T12:09:11;9.67;;;5.93;;
13943;SDS011;7044;53.286;8.534;2022-12-18T12:11:46;10.37;;;6.23;;
13943;SDS011;7044;53.286;8.534;2022-12-18T12:14:31;10.37;;;5.47;;
13943;SDS011;7044;53.286;8.534;2022-12-18T12:17:09;10.47;;;5.83;;
13943;SDS011;7044;53.286;8.534;2022-12-18T12:19:43;12.03;;;5.33;;
13943;SDS011;7044;53.286;8.534;2022-12-18T12:22:18;8.27;;;5.17;;
13943;SDS011;7044;53.286;8.534;2022-12-18T12:24:55;8.73;;;5.43;;
13943;SDS011;7044;53.286;8.534;2022-12-18T12:27:36;9.80;;;5.63;;
13943;SDS011;7044;53.286;8.534;2022-12-18T12:30:11;8.70;;;5.73;;
13943;SDS011;7044;53.286;8.534;2022-12-18T12:32:58;8.33;;;5.20;;
13943;SDS011;7044;53.286;8.534;2022-12-18T12:35:40;8.70;;;5.13;;
13943;SDS011;7044;53.286;8.534;2022-12-18T12:38:14;7.87;;;5.40;;
13943;SDS011;7044;53.286;8.534;2022-12-18T12:40:45;9.70;;;5.43;;
13943;SDS011;7044;53.286;8.534;2022-12-18T12:43:21;10.43;;;5.93;;
13943;SDS011;7044;53.286;8.534;2022-12-18T12:45:54;8.53;;;5.07;;
13943;SDS011;7044;53.286;8.534;2022-12-18T12:48:31;7.23;;;4.77;;
13943;SDS011;7044;53.286;8.534;2022-12-18T12:51:01;8.63;;;5.63;;
13943;SDS011;7044;53.286;8.534;2022-12-18T12:53:36;10.30;;;6.20;;
13943;SDS011;7044;53.286;8.534;2022-12-18T12:56:04;6.97;;;4.73;;
13943;SDS011;7044;53.286;8.534;2022-12-18T12:58:33;8.50;;;5.03;;
13943;SDS011;7044;53.286;8.534;2022-12-18T13:01:09;15.43;;;5.63;;
13943;SDS011;7044;53.286;8.534;2022-12-18T13:03:46;14.63;;;6.37;;
13943;SDS011;7044;53.286;8.534;2022-12-18T13:06:24;7.53;;;4.97;;
13943;SDS011;7044;53.286;8.534;2022-12-18T13:09:00;10.90;;;5.50;;
13943;SDS011;7044;53.286;8.534;2022-12-18T13:14:32;9.30;;;5.30;;
13943;SDS011;7044;53.286;8.534;2022-12-18T13:17:16;7.47;;;4.93;;
13943;SDS011;7044;53.286;8.534;2022-12-18T13:20:02;7.37;;;4.97;;
13943;SDS011;7044;53.286;8.534;2022-12-18T13:22:34;9.57;;;4.87;;
13943;SDS011;7044;53.286;8.534;2022-12-18T13:25:02;9.93;;;5.43;;
13943;SDS011;7044;53.286;8.534;2022-12-18T13:28:00;12.40;;;4.53;;
13943;SDS011;7044;53.286;8.534;2022-12-18T13:36:13;12.97;;;5.73;;
13943;SDS011;7044;53.286;8.534;2022-12-18T13:38:43;8.80;;;4.53;;
13943;SDS011;7044;53.286;8.534;2022-12-18T13:41:23;7.47;;;4.70;;
13943;SDS011;7044;53.286;8.534;2022-12-18T13:43:52;7.10;;;3.80;;
13943;SDS011;7044;53.286;8.534;2022-12-18T13:46:21;6.27;;;4.07;;
13943;SDS011;7044;53.286;8.534;2022-12-18T13:49:00;6.57;;;4.70;;
13943;SDS011;7044;53.286;8.534;2022-12-18T13:51:30;9.60;;;5.03;;
13943;SDS011;7044;53.286;8.534;2022-12-18T13:53:59;7.57;;;4.53;;
13943;SDS011;7044;53.286;8.534;2022-12-18T13:56:29;9.93;;;4.63;;
13943;SDS011;7044;53.286;8.534;2022-12-18T13:59:10;10.17;;;4.63;;
13943;SDS011;7044;53.286;8.534;2022-12-18T14:01:44;6.10;;;4.27;;
13943;SDS011;7044;53.286;8.534;2022-12-18T14:04:17;8.03;;;4.63;;
13943;SDS011;7044;53.286;8.534;2022-12-18T14:06:47;11.60;;;4.60;;
13943;SDS011;7044;53.286;8.534;2022-12-18T14:09:18;8.33;;;4.70;;
13943;SDS011;7044;53.286;8.534;2022-12-18T14:11:49;7.73;;;4.50;;
13943;SDS011;7044;53.286;8.534;2022-12-18T14:14:18;8.67;;;4.30;;
13943;SDS011;7044;53.286;8.534;2022-12-18T14:16:46;7.83;;;4.47;;
13943;SDS011;7044;53.286;8.534;2022-12-18T14:19:14;6.70;;;4.40;;
13943;SDS011;7044;53.286;8.534;2022-12-18T14:21:45;6.27;;;4.43;;
13943;SDS011;7044;53.286;8.534;2022-12-18T14:24:14;7.50;;;4.23;;
13943;SDS011;7044;53.286;8.534;2022-12-18T14:26:42;9.13;;;5.30;;
13943;SDS011;7044;53.286;8.534;2022-12-18T14:29:17;5.97;;;4.50;;
13943;SDS011;7044;53.286;8.534;2022-12-18T14:32:03;7.27;;;4.27;;
13943;SDS011;7044;53.286;8.534;2022-12-18T14:34:31;12.60;;;5.70;;
13943;SDS011;7044;53.286;8.534;2022-12-18T14:36:58;8.47;;;4.93;;
13943;SDS011;7044;53.286;8.534;2022-12-18T14:39:25;8.03;;;4.77;;
13943;SDS011;7044;53.286;8.534;2022-12-18T14:41:51;7.13;;;5.07;;
13943;SDS011;7044;53.286;8.534;2022-12-18T14:44:18;6.87;;;4.67;;
13943;SDS011;7044;53.286;8.534;2022-12-18T14:46:48;7.30;;;5.07;;
13943;SDS011;7044;53.286;8.534;2022-12-18T14:49:18;7.53;;;4.77;;
13943;SDS011;7044;53.286;8.534;2022-12-18T14:51:49;9.03;;;5.57;;
13943;SDS011;7044;53.286;8.534;2022-12-18T14:54:19;7.73;;;4.60;;
13943;SDS011;7044;53.286;8.534;2022-12-18T14:56:47;8.77;;;4.87;;
13943;SDS011;7044;53.286;8.534;2022-12-18T14:59:17;7.60;;;5.07;;
13943;SDS011;7044;53.286;8.534;2022-12-18T15:01:49;7.77;;;5.00;;
13943;SDS011;7044;53.286;8.534;2022-12-18T15:04:25;10.43;;;5.27;;
13943;SDS011;7044;53.286;8.534;2022-12-18T15:07:04;6.67;;;4.67;;
13943;SDS011;7044;53.286;8.534;2022-12-18T15:09:35;8.43;;;4.87;;
13943;SDS011;7044;53.286;8.534;2022-12-18T15:12:03;9.10;;;5.13;;
13943;SDS011;7044;53.286;8.534;2022-12-18T15:14:35;14.17;;;5.30;;
13943;SDS011;7044;53.286;8.534;2022-12-18T15:17:14;8.73;;;4.93;;
13943;SDS011;7044;53.286;8.534;2022-12-18T15:19:44;9.20;;;4.47;;